Time;durP1;ratioP1;P1;durP2;ratioP2;P2;SDS_P1;SDS_P2;PMS_P1;PMS_P2;Temp;Humidity;BMP_temperature;BMP_pressure;BME280_temperature;BME280_humidity;BME280_pressure;Samples;Min_cycle;Max_cycle;Signal;HPM_P1;HPM_P2
2023/06/10 00:01:37;;;;;;;4.90;2.60;;;20.70;93.50;;;;;;4955704;28;20031;-66
2023/06/10 00:04:04;;;;;;;8.35;3.28;;;20.80;93.40;;;;;;4969728;28;20682;-65
2023/06/10 00:06:35;;;;;;;5.88;3.33;;;20.90;93.10;;;;;;4956358;28;20502;-66
2023/06/10 00:09:05;;;;;;;5.47;2.75;;;20.80;93.00;;;;;;4969491;28;20459;-66
2023/06/10 00:11:32;;;;;;;9.70;3.10;;;20.70;93.10;;;;;;4972225;28;20034;-66
2023/06/10 00:13:59;;;;;;;5.70;3.00;;;20.80;93.30;;;;;;4971367;28;20462;-66
2023/06/10 00:16:24;;;;;;;5.88;3.65;;;20.80;93.40;;;;;;4956897;28;20031;-66
2023/06/10 00:18:55;;;;;;;5.20;2.67;;;20.80;93.40;;;;;;4969071;28;20049;-65
2023/06/10 00:21:22;;;;;;;5.25;2.97;;;20.90;93.40;;;;;;4954749;28;20074;-65
2023/06/10 00:23:48;;;;;;;4.78;2.92;;;20.90;93.30;;;;;;4953588;28;20110;-66
2023/06/10 00:26:14;;;;;;;9.98;3.55;;;20.80;93.10;;;;;;4972199;28;20030;-65
2023/06/10 00:28:39;;;;;;;4.88;2.88;;;20.80;93.30;;;;;;4971285;28;20436;-66
2023/06/10 00:31:05;;;;;;;7.38;3.28;;;20.60;93.70;;;;;;4971744;28;20045;-66
2023/06/10 00:33:31;;;;;;;5.65;2.88;;;20.70;93.60;;;;;;4954076;28;20550;-66
2023/06/10 00:35:57;;;;;;;6.03;2.75;;;20.60;93.60;;;;;;4971257;28;20043;-66
2023/06/10 00:38:23;;;;;;;6.97;3.72;;;20.70;93.80;;;;;;4972179;28;20092;-66
2023/06/10 00:40:49;;;;;;;5.68;3.20;;;20.70;93.60;;;;;;4953310;28;20376;-66
2023/06/10 00:43:15;;;;;;;3.85;2.80;;;20.70;93.50;;;;;;4938447;28;20039;-66
2023/06/10 00:45:41;;;;;;;4.53;3.10;;;20.70;93.50;;;;;;4971072;28;20390;-66
2023/06/10 00:48:07;;;;;;;8.80;3.63;;;20.70;93.70;;;;;;4952777;29;20020;-66
2023/06/10 00:50:34;;;;;;;5.20;3.00;;;20.70;93.40;;;;;;4950116;28;20430;-66
2023/06/10 00:53:01;;;;;;;4.60;2.88;;;20.70;93.40;;;;;;4971676;28;20120;-65
2023/06/10 00:55:27;;;;;;;4.80;2.92;;;20.60;93.50;;;;;;4953554;28;20031;-66
2023/06/10 00:57:53;;;;;;;3.67;2.58;;;20.50;93.70;;;;;;4971695;28;20045;-66
2023/06/10 01:00:20;;;;;;;4.75;2.55;;;20.50;93.60;;;;;;4970676;28;20118;-66
2023/06/10 01:02:46;;;;;;;5.32;3.17;;;20.40;93.80;;;;;;4954040;28;20142;-66
2023/06/10 01:05:12;;;;;;;7.20;3.20;;;20.40;93.90;;;;;;4966340;28;20106;-65
2023/06/10 01:07:53;;;;;;;5.25;2.65;;;20.40;94.10;;;;;;4970622;28;20029;-66
2023/06/10 01:10:33;;;;;;;5.10;2.60;;;20.30;94.10;;;;;;4953852;28;20066;-65
2023/06/10 01:13:08;;;;;;;4.43;2.75;;;20.40;94.20;;;;;;4950823;29;20046;-65
2023/06/10 01:15:35;;;;;;;4.88;2.63;;;20.20;94.10;;;;;;4950454;29;20118;-66
2023/06/10 01:18:08;;;;;;;5.97;2.47;;;20.00;94.50;;;;;;4943108;29;20038;-66
2023/06/10 01:20:36;;;;;;;4.30;2.88;;;20.00;94.70;;;;;;4953974;28;20026;-68
2023/06/10 01:23:03;;;;;;;7.82;3.22;;;19.90;94.90;;;;;;4954361;28;20090;-67
2023/06/10 01:25:32;;;;;;;2.95;2.28;;;19.90;95.00;;;;;;4970567;28;20569;-67
2023/06/10 01:28:10;;;;;;;5.88;2.30;;;19.90;94.90;;;;;;4954340;28;20090;-66
2023/06/10 01:30:53;;;;;;;4.40;2.78;;;19.90;95.00;;;;;;4953734;28;20038;-67
2023/06/10 01:33:31;;;;;;;5.40;3.00;;;20.00;94.80;;;;;;4964671;28;20101;-66
2023/06/10 01:35:58;;;;;;;4.13;2.38;;;20.10;94.80;;;;;;4954308;28;20113;-66
2023/06/10 01:38:27;;;;;;;6.45;2.50;;;20.20;94.70;;;;;;4971327;28;20030;-66
2023/06/10 01:40:56;;;;;;;4.65;2.47;;;20.10;94.60;;;;;;4935612;28;20117;-67
2023/06/10 01:43:22;;;;;;;4.28;2.38;;;20.10;94.80;;;;;;4953741;28;20034;-67
2023/06/10 01:45:48;;;;;;;5.10;2.30;;;20.10;94.80;;;;;;4972212;28;20127;-68
2023/06/10 01:48:14;;;;;;;5.45;2.47;;;20.10;94.80;;;;;;4974693;28;20023;-67
2023/06/10 01:50:40;;;;;;;6.25;2.97;;;20.00;95.10;;;;;;4956196;28;20027;-67
2023/06/10 01:53:06;;;;;;;3.38;1.90;;;19.80;95.40;;;;;;4974211;28;20547;-67
2023/06/10 01:55:31;;;;;;;4.82;2.83;;;19.90;95.30;;;;;;4973887;28;20066;-67
2023/06/10 01:57:57;;;;;;;6.13;2.53;;;19.90;95.50;;;;;;4974597;28;20394;-67
2023/06/10 02:00:23;;;;;;;4.10;2.45;;;19.90;95.40;;;;;;4973399;28;20173;-67
2023/06/10 02:02:49;;;;;;;6.43;2.72;;;20.00;95.50;;;;;;4974209;28;20078;-67
2023/06/10 02:05:14;;;;;;;5.25;2.60;;;20.00;95.30;;;;;;4973405;28;20042;-67
2023/06/10 02:07:40;;;;;;;8.05;2.95;;;20.00;95.40;;;;;;4974118;28;20093;-67
2023/06/10 02:10:08;;;;;;;4.57;2.47;;;19.90;95.20;;;;;;4973575;28;20030;-67
2023/06/10 02:12:34;;;;;;;6.28;2.60;;;19.90;95.30;;;;;;4974075;28;20033;-67
2023/06/10 02:14:59;;;;;;;5.18;2.60;;;19.80;95.40;;;;;;4972976;28;20037;-67
2023/06/10 02:17:26;;;;;;;7.00;2.95;;;19.80;95.60;;;;;;4974128;28;20398;-66
2023/06/10 02:19:56;;;;;;;6.93;2.80;;;19.80;95.70;;;;;;4973737;28;20038;-66
2023/06/10 02:22:22;;;;;;;4.30;2.20;;;19.70;95.80;;;;;;4956783;28;20023;-66
2023/06/10 02:24:49;;;;;;;4.22;2.80;;;19.70;96.10;;;;;;4956119;28;20027;-67
2023/06/10 02:27:16;;;;;;;3.85;2.50;;;19.70;96.40;;;;;;4956408;28;20462;-66
2023/06/10 02:29:43;;;;;;;3.92;2.58;;;19.70;96.20;;;;;;4955902;28;20209;-66
2023/06/10 02:32:09;;;;;;;4.18;2.15;;;19.70;96.30;;;;;;4973946;28;20030;-66
2023/06/10 02:34:36;;;;;;;5.40;3.08;;;19.80;96.30;;;;;;4972957;28;20042;-66
2023/06/10 02:37:02;;;;;;;4.88;2.50;;;19.80;96.30;;;;;;4956569;28;20042;-66
2023/06/10 02:39:28;;;;;;;5.63;2.97;;;19.80;96.30;;;;;;4972674;28;20105;-66
2023/06/10 02:41:54;;;;;;;6.75;3.05;;;19.80;96.20;;;;;;4973799;28;20469;-67
2023/06/10 02:44:20;;;;;;;4.22;2.78;;;19.80;96.20;;;;;;4972749;28;20033;-66
2023/06/10 02:46:46;;;;;;;4.50;2.90;;;19.80;96.40;;;;;;4972259;28;20033;-66
2023/06/10 02:49:12;;;;;;;5.00;3.13;;;19.60;96.40;;;;;;4955618;28;20058;-66
2023/06/10 02:51:38;;;;;;;7.55;3.15;;;19.60;96.60;;;;;;4956225;28;20023;-67
2023/06/10 02:54:04;;;;;;;4.03;2.17;;;19.60;96.70;;;;;;4972280;28;20129;-67
2023/06/10 02:56:31;;;;;;;5.35;2.88;;;19.60;96.90;;;;;;4973249;28;20098;-67
2023/06/10 02:58:57;;;;;;;6.13;3.28;;;19.60;96.90;;;;;;4972417;28;20759;-66
2023/06/10 03:01:23;;;;;;;4.53;2.67;;;19.60;96.90;;;;;;4973306;28;20085;-66
2023/06/10 03:03:50;;;;;;;5.55;3.05;;;19.60;96.90;;;;;;4951963;28;20026;-66
2023/06/10 03:06:16;;;;;;;5.07;2.80;;;19.60;96.90;;;;;;4972821;28;20049;-67
2023/06/10 03:08:42;;;;;;;4.15;2.83;;;19.60;96.90;;;;;;4954857;28;20441;-66
2023/06/10 03:11:08;;;;;;;5.13;2.85;;;19.60;96.90;;;;;;4972991;28;20109;-67
2023/06/10 03:13:34;;;;;;;4.95;3.25;;;19.60;96.90;;;;;;4955493;28;20027;-67
2023/06/10 03:16:00;;;;;;;4.97;2.97;;;19.40;97.40;;;;;;4972277;28;20126;-66
2023/06/10 03:18:27;;;;;;;4.63;3.45;;;19.40;97.60;;;;;;4972898;28;20109;-66
2023/06/10 03:20:54;;;;;;;5.68;3.38;;;19.40;97.80;;;;;;4971798;28;20038;-67
2023/06/10 03:23:20;;;;;;;5.22;3.05;;;19.30;98.00;;;;;;4955205;28;20506;-67
2023/06/10 03:25:46;;;;;;;6.65;3.13;;;19.30;98.00;;;;;;4971974;28;20027;-67
2023/06/10 03:28:12;;;;;;;6.60;3.70;;;19.30;98.10;;;;;;4972778;28;20399;-67
2023/06/10 03:30:38;;;;;;;4.60;3.30;;;19.20;98.30;;;;;;4972089;28;20362;-67
2023/06/10 03:33:03;;;;;;;6.68;3.63;;;19.10;98.70;;;;;;4972241;28;20838;-66
2023/06/10 03:35:30;;;;;;;6.65;3.88;;;19.10;99.00;;;;;;4972022;28;20119;-66
2023/06/10 03:37:55;;;;;;;5.97;3.38;;;19.10;99.30;;;;;;4972795;28;20049;-67
2023/06/10 03:40:21;;;;;;;7.97;3.60;;;19.00;99.70;;;;;;4970496;28;20418;-67
2023/06/10 03:42:47;;;;;;;6.22;3.80;;;19.00;99.90;;;;;;4954454;28;20031;-66
2023/06/10 03:45:13;;;;;;;6.35;4.05;;;18.90;99.90;;;;;;4964953;28;20394;-66
2023/06/10 03:47:40;;;;;;;6.30;4.07;;;18.90;99.90;;;;;;4954938;28;20094;-66
2023/06/10 03:50:11;;;;;;;7.28;4.22;;;18.80;99.90;;;;;;4971558;28;20050;-64
2023/06/10 03:52:47;;;;;;;6.43;3.90;;;18.80;99.90;;;;;;4969264;28;20042;-62
2023/06/10 03:55:13;;;;;;;10.20;3.72;;;18.80;99.90;;;;;;4984267;28;20045;-61
2023/06/10 03:57:39;;;;;;;5.57;3.78;;;18.80;99.90;;;;;;4988221;28;20033;-62
2023/06/10 04:00:10;;;;;;;6.72;3.78;;;18.80;99.90;;;;;;4991583;28;20335;-61
2023/06/10 04:02:36;;;;;;;;;;;18.70;99.90;;;;;;4988737;28;20026;-62
2023/06/10 04:05:02;;;;;;;6.28;3.95;;;18.80;99.90;;;;;;4991012;28;20033;-62
2023/06/10 04:07:28;;;;;;;12.32;4.28;;;18.70;99.90;;;;;;4987777;28;20081;-62
2023/06/10 04:09:54;;;;;;;6.88;4.45;;;18.70;99.90;;;;;;4991231;28;20022;-62
2023/06/10 04:12:19;;;;;;;7.13;4.55;;;18.70;99.90;;;;;;4988134;28;20438;-62
2023/06/10 04:14:45;;;;;;;5.57;3.53;;;18.70;99.90;;;;;;4991127;28;20042;-62
2023/06/10 04:17:11;;;;;;;15.43;4.90;;;18.80;99.90;;;;;;4988014;28;20058;-62
2023/06/10 04:19:37;;;;;;;5.80;3.80;;;18.80;99.90;;;;;;4991274;28;20129;-62
2023/06/10 04:22:03;;;;;;;7.35;4.47;;;18.90;99.90;;;;;;4988102;28;20057;-61
2023/06/10 04:24:29;;;;;;;6.25;4.13;;;19.00;99.90;;;;;;4990889;28;20131;-62
2023/06/10 04:26:55;;;;;;;8.15;4.65;;;19.10;99.90;;;;;;4988018;28;20057;-62
2023/06/10 04:29:21;;;;;;;6.68;3.95;;;19.10;99.90;;;;;;4990918;28;20026;-62
2023/06/10 04:31:46;;;;;;;6.18;4.32;;;19.20;99.90;;;;;;4990165;28;20467;-62
2023/06/10 04:34:13;;;;;;;9.13;4.13;;;19.10;99.90;;;;;;4990807;28;20118;-62
2023/06/10 04:36:39;;;;;;;8.38;4.03;;;19.10;99.90;;;;;;4989876;28;20033;-62
2023/06/10 04:39:05;;;;;;;8.55;4.22;;;19.00;99.90;;;;;;4990859;28;20038;-62
2023/06/10 04:41:31;;;;;;;7.82;4.35;;;19.00;99.90;;;;;;4972566;28;20034;-62
2023/06/10 04:43:57;;;;;;;5.65;3.92;;;19.00;99.90;;;;;;4990537;28;20422;-62
2023/06/10 04:46:24;;;;;;;6.40;4.20;;;19.00;99.90;;;;;;4988221;28;20027;-61
2023/06/10 04:48:50;;;;;;;6.25;3.70;;;18.90;99.90;;;;;;4990497;28;20026;-61
2023/06/10 04:51:16;;;;;;;6.97;4.18;;;19.10;99.90;;;;;;4989390;28;20034;-61
2023/06/10 04:53:42;;;;;;;8.75;4.35;;;19.10;99.90;;;;;;4987519;28;20097;-60
2023/06/10 04:56:08;;;;;;;7.57;4.72;;;19.10;99.90;;;;;;4989406;28;20042;-60
2023/06/10 04:58:34;;;;;;;5.90;3.70;;;19.10;99.90;;;;;;4990375;28;20031;-61
2023/06/10 05:01:01;;;;;;;5.65;3.85;;;19.10;99.90;;;;;;4988986;28;20121;-61
2023/06/10 05:03:27;;;;;;;7.78;3.63;;;19.20;99.90;;;;;;4990452;28;20022;-61
2023/06/10 05:05:53;;;;;;;6.20;3.70;;;19.30;99.90;;;;;;4987653;28;20045;-60
2023/06/10 05:08:18;;;;;;;6.90;3.75;;;19.40;99.90;;;;;;4990838;28;20029;-61
2023/06/10 05:10:44;;;;;;;7.15;3.90;;;19.30;99.90;;;;;;4970326;28;20113;-61
2023/06/10 05:13:10;;;;;;;8.32;4.13;;;19.40;99.90;;;;;;4990676;28;20109;-60
2023/06/10 05:15:36;;;;;;;7.05;3.80;;;19.40;99.90;;;;;;4987959;28;20038;-61
2023/06/10 05:18:02;;;;;;;6.82;4.43;;;19.50;99.90;;;;;;4990322;28;20670;-61
2023/06/10 05:20:28;;;;;;;6.28;3.53;;;19.60;99.90;;;;;;4990830;28;20069;-61
2023/06/10 05:22:55;;;;;;;7.15;4.00;;;19.50;99.90;;;;;;4992902;28;20026;-61
2023/06/10 05:25:21;;;;;;;5.93;4.00;;;19.60;99.90;;;;;;4993363;28;20022;-61
2023/06/10 05:27:46;;;;;;;6.78;3.50;;;19.70;99.90;;;;;;4994089;28;20033;-61
2023/06/10 05:30:12;;;;;;;7.43;4.38;;;19.70;99.90;;;;;;4994475;28;20031;-61
2023/06/10 05:32:38;;;;;;;8.98;4.40;;;19.80;99.90;;;;;;4991315;28;20045;-61
2023/06/10 05:35:04;;;;;;;5.78;3.97;;;19.80;99.90;;;;;;4993768;28;20030;-61
2023/06/10 05:37:30;;;;;;;6.65;4.13;;;19.90;99.90;;;;;;4992939;28;20038;-61
2023/06/10 05:39:56;;;;;;;7.32;4.38;;;20.00;99.90;;;;;;4994028;28;20122;-61
2023/06/10 05:42:21;;;;;;;7.30;3.97;;;20.10;99.90;;;;;;4990560;28;20026;-61
2023/06/10 05:44:47;;;;;;;7.30;4.35;;;20.20;99.90;;;;;;4993699;28;20155;-60
2023/06/10 05:47:13;;;;;;;8.45;3.70;;;20.30;99.90;;;;;;4990853;28;20472;-60
2023/06/10 05:49:39;;;;;;;6.07;4.00;;;20.30;99.90;;;;;;4976650;28;20048;-61
2023/06/10 05:52:05;;;;;;;9.90;4.05;;;20.40;99.90;;;;;;4990545;28;20034;-61
2023/06/10 05:54:31;;;;;;;5.32;3.60;;;20.50;99.90;;;;;;4993524;28;20108;-61
2023/06/10 05:56:57;;;;;;;7.78;3.97;;;20.60;99.90;;;;;;4975562;28;20470;-61
2023/06/10 05:59:22;;;;;;;9.63;4.57;;;20.70;99.90;;;;;;4993793;28;20030;-62
2023/06/10 06:01:50;;;;;;;7.20;4.28;;;20.80;99.90;;;;;;4984518;28;20490;-62
2023/06/10 06:04:16;;;;;;;6.72;3.78;;;20.80;99.90;;;;;;4993400;28;20026;-61
2023/06/10 06:06:42;;;;;;;7.85;3.97;;;20.90;99.90;;;;;;4990436;28;20029;-63
2023/06/10 06:09:07;;;;;;;7.78;3.95;;;21.00;99.90;;;;;;4992993;28;20031;-61
2023/06/10 06:11:34;;;;;;;5.70;3.50;;;21.00;99.90;;;;;;4986623;28;20038;-62
2023/06/10 06:14:00;;;;;;;9.57;4.13;;;21.20;99.90;;;;;;4974890;28;20116;-62
2023/06/10 06:16:26;;;;;;;6.65;4.07;;;21.10;99.90;;;;;;4989650;28;20498;-63
2023/06/10 06:18:52;;;;;;;6.38;3.97;;;21.10;99.90;;;;;;4993423;28;20026;-62
2023/06/10 06:21:17;;;;;;;6.47;3.78;;;21.20;99.90;;;;;;4986801;28;20490;-62
2023/06/10 06:23:43;;;;;;;5.32;3.50;;;21.30;99.90;;;;;;4992353;28;20514;-62
2023/06/10 06:26:09;;;;;;;6.57;3.53;;;21.40;99.90;;;;;;4981841;28;20037;-61
2023/06/10 06:28:35;;;;;;;5.05;3.20;;;21.50;99.90;;;;;;4988562;28;20034;-61
2023/06/10 06:31:01;;;;;;;6.60;3.20;;;21.70;99.00;;;;;;4989337;28;20038;-61
2023/06/10 06:33:27;;;;;;;6.10;2.70;;;22.00;98.60;;;;;;4974616;28;20030;-61
2023/06/10 06:35:52;;;;;;;4.95;2.90;;;22.10;97.80;;;;;;4989720;28;20129;-63
2023/06/10 06:38:18;;;;;;;9.98;3.20;;;22.30;97.10;;;;;;4993059;28;20449;-63
2023/06/10 06:40:44;;;;;;;3.97;2.75;;;22.40;96.40;;;;;;4989543;28;20595;-63
2023/06/10 06:43:09;;;;;;;4.43;2.75;;;22.60;96.00;;;;;;4992639;28;20026;-63
2023/06/10 06:45:35;;;;;;;7.13;3.15;;;22.60;95.60;;;;;;4973007;28;20026;-63
2023/06/10 06:48:02;;;;;;;5.97;2.53;;;22.60;95.70;;;;;;4974857;28;20062;-63
2023/06/10 06:50:28;;;;;;;4.05;2.30;;;22.70;95.40;;;;;;4974173;28;20427;-62
2023/06/10 06:52:53;;;;;;;3.92;2.55;;;22.80;95.20;;;;;;4990841;28;20106;-63
2023/06/10 06:55:19;;;;;;;4.18;2.47;;;22.90;94.90;;;;;;4992233;28;20450;-63
2023/06/10 06:57:45;;;;;;;4.07;2.30;;;23.00;94.60;;;;;;4992135;28;20485;-62
2023/06/10 07:00:11;;;;;;;5.20;2.53;;;23.00;94.20;;;;;;4992634;28;20030;-63
2023/06/10 07:02:37;;;;;;;5.43;2.45;;;23.00;94.00;;;;;;4989269;28;20085;-63
2023/06/10 07:05:03;;;;;;;4.75;2.28;;;23.00;93.70;;;;;;4992289;28;20034;-63
2023/06/10 07:07:29;;;;;;;4.40;2.55;;;23.00;93.90;;;;;;4974555;28;20023;-63
2023/06/10 07:09:55;;;;;;;3.92;2.40;;;23.20;93.80;;;;;;4992907;28;20036;-63
2023/06/10 07:12:23;;;;;;;3.30;2.05;;;23.20;93.70;;;;;;4988903;28;20034;-63
2023/06/10 07:14:50;;;;;;;9.05;2.63;;;23.30;93.70;;;;;;4992027;28;20030;-63
2023/06/10 07:17:17;;;;;;;5.93;2.53;;;23.30;93.60;;;;;;4973911;28;20026;-62
2023/06/10 07:19:45;;;;;;;3.70;1.58;;;23.40;93.30;;;;;;4991226;28;20446;-64
2023/06/10 07:22:10;;;;;;;3.25;1.90;;;23.40;93.20;;;;;;4986214;28;20084;-64
2023/06/10 07:24:36;;;;;;;3.67;1.75;;;23.50;93.30;;;;;;4990437;28;20018;-63
2023/06/10 07:27:02;;;;;;;4.22;2.30;;;23.60;93.40;;;;;;4978931;28;20990;-63
2023/06/10 07:29:27;;;;;;;5.13;2.40;;;23.80;93.50;;;;;;4981927;28;20034;-63
2023/06/10 07:31:53;;;;;;;2.95;1.90;;;23.80;93.10;;;;;;4990008;28;20026;-63
2023/06/10 07:34:19;;;;;;;2.97;1.83;;;23.80;93.00;;;;;;4991978;28;20037;-63
2023/06/10 07:36:45;;;;;;;3.47;2.35;;;23.80;92.80;;;;;;4980776;28;20034;-63
2023/06/10 07:39:11;;;;;;;3.17;1.75;;;23.80;93.00;;;;;;4990164;28;20170;-63
2023/06/10 07:41:36;;;;;;;3.08;1.80;;;23.90;92.90;;;;;;4991831;28;20038;-63
2023/06/10 07:44:02;;;;;;;3.55;1.98;;;24.00;92.60;;;;;;4989146;28;20034;-60
2023/06/10 07:46:28;;;;;;;3.60;2.03;;;24.10;92.40;;;;;;4991403;28;20487;-60
2023/06/10 07:48:54;;;;;;;6.72;2.15;;;24.20;92.10;;;;;;4985478;28;20058;-60
2023/06/10 07:51:21;;;;;;;3.47;1.80;;;24.20;92.10;;;;;;4973115;28;20478;-60
2023/06/10 07:53:47;;;;;;;4.25;2.13;;;24.30;92.00;;;;;;4989805;28;20160;-60
2023/06/10 07:56:13;;;;;;;4.53;2.38;;;24.40;91.70;;;;;;4992042;28;20034;-60
2023/06/10 07:58:39;;;;;;;4.00;2.20;;;24.50;91.50;;;;;;4989945;28;20062;-60
2023/06/10 08:01:05;;;;;;;7.53;2.25;;;24.40;91.70;;;;;;4991283;28;20482;-60
2023/06/10 08:03:30;;;;;;;3.88;2.63;;;24.50;91.50;;;;;;4990269;28;20076;-61
2023/06/10 08:05:56;;;;;;;4.60;2.10;;;24.60;91.50;;;;;;4991559;28;20026;-60
2023/06/10 08:08:22;;;;;;;3.05;2.03;;;24.70;91.30;;;;;;4990038;28;20030;-60
2023/06/10 08:10:49;;;;;;;3.53;1.92;;;24.80;91.40;;;;;;4991239;28;20034;-60
2023/06/10 08:13:15;;;;;;;6.38;2.35;;;24.70;91.20;;;;;;4989707;28;20034;-59
2023/06/10 08:15:40;;;;;;;4.28;2.13;;;24.80;90.90;;;;;;4991626;28;20030;-59
2023/06/10 08:18:06;;;;;;;3.15;1.80;;;24.80;91.20;;;;;;4973105;28;20101;-59
2023/06/10 08:20:32;;;;;;;6.63;2.38;;;24.90;90.90;;;;;;4991367;28;20038;-59
2023/06/10 08:22:58;;;;;;;5.40;2.47;;;25.10;90.70;;;;;;4973160;28;20030;-60
2023/06/10 08:25:23;;;;;;;3.53;1.95;;;25.20;90.70;;;;;;4973996;28;20029;-60
2023/06/10 08:27:50;;;;;;;3.47;1.88;;;25.30;90.90;;;;;;4989489;28;20061;-60
2023/06/10 08:30:16;;;;;;;3.30;1.98;;;25.20;90.20;;;;;;4991176;28;20076;-60
2023/06/10 08:32:42;;;;;;;3.45;2.22;;;25.20;90.40;;;;;;4989443;28;20437;-60
2023/06/10 08:35:08;;;;;;;4.97;2.63;;;25.30;90.10;;;;;;4973408;28;20033;-60
2023/06/10 08:37:34;;;;;;;3.35;2.17;;;25.30;89.50;;;;;;4972834;28;20399;-60
2023/06/10 08:39:59;;;;;;;3.33;2.03;;;25.50;90.10;;;;;;4972623;28;20108;-60
2023/06/10 08:42:39;;;;;;;4.10;2.35;;;25.60;90.00;;;;;;4991135;28;20154;-60
2023/06/10 08:45:07;;;;;;;7.38;2.67;;;25.50;89.90;;;;;;4990691;28;20034;-60
2023/06/10 08:47:37;;;;;;;3.40;2.10;;;25.60;89.80;;;;;;4957077;28;20038;-60
2023/06/10 08:50:04;;;;;;;4.47;2.20;;;25.90;89.10;;;;;;4981979;28;20073;-60
2023/06/10 08:52:39;;;;;;;4.25;2.00;;;26.00;88.20;;;;;;4990122;28;20073;-60
2023/06/10 08:55:33;;;;;;;5.70;1.90;;;26.00;87.30;;;;;;4993300;28;20087;-60
2023/06/10 08:58:02;;;;;;;3.72;2.35;;;26.10;86.90;;;;;;4993377;28;20026;-60
2023/06/10 09:00:31;;;;;;;5.67;2.20;;;26.40;86.60;;;;;;4995141;28;20035;-60
2023/06/10 09:02:58;;;;;;;3.63;2.03;;;26.40;87.10;;;;;;4993257;28;20394;-60
2023/06/10 09:05:24;;;;;;;4.57;2.03;;;26.60;85.90;;;;;;4994740;28;20026;-60
2023/06/10 09:07:52;;;;;;;3.05;1.90;;;26.60;86.60;;;;;;4993082;28;20092;-60
2023/06/10 09:10:18;;;;;;;3.88;2.15;;;26.70;86.60;;;;;;4994972;28;20031;-60
2023/06/10 09:12:44;;;;;;;4.78;2.08;;;27.00;86.80;;;;;;4992939;28;20393;-60
2023/06/10 09:15:12;;;;;;;3.75;2.40;;;27.00;86.00;;;;;;4993999;28;20049;-61
2023/06/10 09:17:40;;;;;;;6.97;2.20;;;26.90;85.40;;;;;;4991854;28;20164;-59
2023/06/10 09:20:07;;;;;;;4.43;1.95;;;27.20;85.50;;;;;;4977323;28;20505;-64
2023/06/10 09:22:34;;;;;;;3.65;2.25;;;27.40;85.30;;;;;;4993313;28;20026;-59
2023/06/10 09:25:08;;;;;;;8.00;2.55;;;27.50;85.30;;;;;;4975559;28;20030;-61
2023/06/10 09:27:50;;;;;;;5.15;2.38;;;27.60;84.00;;;;;;4993331;28;20022;-60
2023/06/10 09:30:30;;;;;;;4.75;2.60;;;27.70;85.00;;;;;;4982639;28;20027;-59
2023/06/10 09:32:58;;;;;;;8.13;3.07;;;27.80;85.80;;;;;;4980191;28;20161;-59
2023/06/10 09:35:30;;;;;;;6.05;3.15;;;28.00;85.90;;;;;;4994199;28;20505;-59
2023/06/10 09:38:00;;;;;;;3.75;2.33;;;28.10;86.10;;;;;;4975894;28;20045;-57
2023/06/10 09:40:27;;;;;;;6.18;2.83;;;28.30;83.90;;;;;;4994066;28;20694;-60
2023/06/10 09:42:59;;;;;;;5.07;2.95;;;28.40;85.30;;;;;;4992654;28;20047;-59
2023/06/10 09:45:33;;;;;;;5.20;2.80;;;28.50;85.30;;;;;;4960448;28;20348;-61
2023/06/10 09:48:00;;;;;;;5.30;2.88;;;28.40;84.60;;;;;;4992647;28;20054;-61
2023/06/10 09:50:26;;;;;;;5.65;2.60;;;28.30;85.00;;;;;;4970821;28;20046;-61
2023/06/10 09:52:52;;;;;;;3.78;2.40;;;28.10;81.70;;;;;;4985432;28;20030;-61
2023/06/10 09:55:19;;;;;;;4.68;2.45;;;28.30;82.50;;;;;;4993169;28;20517;-62
2023/06/10 09:57:49;;;;;;;3.80;2.08;;;28.70;80.60;;;;;;4999436;23;20534;-68
2023/06/10 10:00:16;;;;;;;3.97;2.05;;;29.00;78.40;;;;;;4954419;28;20035;-68
2023/06/10 10:02:51;;;;;;;9.95;2.95;;;28.90;77.30;;;;;;4954951;28;20097;-68
2023/06/10 10:05:20;;;;;;;3.15;1.90;;;29.10;79.90;;;;;;4955195;28;20030;-68
2023/06/10 10:07:46;;;;;;;2.70;1.73;;;29.10;76.90;;;;;;4963683;28;20036;-69
2023/06/10 10:10:14;;;;;;;4.43;2.30;;;29.30;74.40;;;;;;4935407;29;20043;-68
2023/06/10 10:12:41;;;;;;;3.53;1.98;;;29.60;74.70;;;;;;4917210;29;20122;-69
2023/06/10 10:15:11;;;;;;;3.20;1.83;;;29.80;73.40;;;;;;4953467;28;20028;-69
2023/06/10 10:17:44;;;;;;;5.40;2.15;;;30.00;73.60;;;;;;4949795;28;20042;-68
2023/06/10 10:20:14;;;;;;;7.00;2.15;;;30.10;72.30;;;;;;4951199;28;20892;-69
2023/06/10 10:22:43;;;;;;;3.53;1.97;;;30.10;71.30;;;;;;4940703;29;20463;-68
2023/06/10 10:25:22;;;;;;;4.78;2.25;;;30.30;72.20;;;;;;4942133;28;20278;-68
2023/06/10 10:28:06;;;;;;;2.90;2.10;;;30.30;70.00;;;;;;4951332;28;20027;-69
2023/06/10 10:30:44;;;;;;;4.30;1.45;;;30.10;69.90;;;;;;4965243;28;20027;-68
2023/06/10 10:33:18;;;;;;;9.45;1.92;;;30.00;67.90;;;;;;4963649;28;20066;-68
2023/06/10 10:35:46;;;;;;;6.05;1.60;;;30.20;68.20;;;;;;4947810;28;20027;-68
2023/06/10 10:38:12;;;;;;;3.17;1.85;;;30.50;68.90;;;;;;4967215;28;20046;-68
2023/06/10 10:40:40;;;;;;;3.13;1.52;;;30.50;68.10;;;;;;4964960;28;20142;-68
2023/06/10 10:43:06;;;;;;;6.18;1.58;;;30.60;66.40;;;;;;4949719;28;20023;-68
2023/06/10 10:45:34;;;;;;;3.15;1.80;;;30.40;67.70;;;;;;4947808;28;20105;-68
2023/06/10 10:48:11;;;;;;;4.10;2.33;;;30.70;67.10;;;;;;4963715;28;20046;-68
2023/06/10 10:50:38;;;;;;;2.60;1.50;;;30.70;67.30;;;;;;4947806;28;20074;-68
2023/06/10 10:53:05;;;;;;;3.08;1.80;;;30.80;67.40;;;;;;4949563;28;20023;-68
2023/06/10 10:55:32;;;;;;;5.63;2.65;;;30.50;66.20;;;;;;4946987;28;20042;-68
2023/06/10 10:58:09;;;;;;;2.58;1.65;;;30.70;67.10;;;;;;4949413;28;20050;-68
2023/06/10 11:00:38;;;;;;;3.55;1.83;;;30.50;66.10;;;;;;4943890;29;20506;-68
2023/06/10 11:03:03;;;;;;;2.67;1.48;;;30.90;66.90;;;;;;4938223;28;20045;-68
2023/06/10 11:05:38;;;;;;;3.47;1.75;;;31.40;66.30;;;;;;4964124;28;20023;-68
2023/06/10 11:08:06;;;;;;;3.22;1.98;;;31.60;65.00;;;;;;4966633;28;20031;-68
2023/06/10 11:10:34;;;;;;;5.15;1.92;;;31.70;65.30;;;;;;4940003;28;20047;-68
2023/06/10 11:13:05;;;;;;;2.40;1.55;;;31.60;63.30;;;;;;4938662;28;20039;-68
2023/06/10 11:15:31;;;;;;;3.78;1.83;;;31.90;63.60;;;;;;4964042;28;20109;-68
2023/06/10 11:18:27;;;;;;;5.03;1.85;;;31.80;63.30;;;;;;4963424;28;20114;-68
2023/06/10 11:21:01;;;;;;;3.20;1.60;;;31.70;63.60;;;;;;4946528;28;20235;-68
2023/06/10 11:23:30;;;;;;;3.85;1.33;;;31.80;62.50;;;;;;4959762;28;20449;-68
2023/06/10 11:26:36;;;;;;;2.27;1.20;;;31.70;62.80;;;;;;4952209;28;20040;-68
2023/06/10 11:29:10;;;;;;;14.27;3.10;;;32.10;62.90;;;;;;4943946;28;20394;-68
2023/06/10 11:31:45;;;;;;;4.25;1.48;;;32.00;61.30;;;;;;4958077;28;20034;-68
2023/06/10 11:34:13;;;;;;;2.78;1.50;;;31.50;62.80;;;;;;4943548;28;20031;-68
2023/06/10 11:36:42;;;;;;;2.35;1.30;;;31.90;61.60;;;;;;4953373;28;20447;-68
2023/06/10 11:39:10;;;;;;;3.70;1.40;;;32.00;61.90;;;;;;4959919;28;20108;-67
2023/06/10 11:41:39;;;;;;;2.08;1.30;;;31.30;61.20;;;;;;4940487;28;20566;-67
2023/06/10 11:44:11;;;;;;;1.58;1.05;;;31.60;62.00;;;;;;4961548;28;20031;-67
2023/06/10 11:46:38;;;;;;;3.40;1.40;;;31.90;61.30;;;;;;4960880;28;20042;-68
2023/06/10 11:49:05;;;;;;;3.03;1.42;;;32.00;61.80;;;;;;4958173;28;20035;-68
2023/06/10 11:51:48;;;;;;;3.30;1.60;;;31.50;61.60;;;;;;4965722;28;20114;-67
2023/06/10 11:54:15;;;;;;;2.28;1.50;;;30.90;61.90;;;;;;4955073;28;20019;-71
2023/06/10 11:56:41;;;;;;;3.80;1.38;;;31.40;62.10;;;;;;4918736;29;20042;-67
2023/06/10 11:59:07;;;;;;;2.38;1.33;;;31.40;62.30;;;;;;4935651;28;20035;-65
2023/06/10 12:01:42;;;;;;;2.67;1.73;;;31.50;62.40;;;;;;4934447;29;20051;-65
2023/06/10 12:04:10;;;;;;;2.33;1.48;;;32.00;61.60;;;;;;4915195;28;20069;-67
2023/06/10 12:06:50;;;;;;;2.42;1.50;;;31.70;62.00;;;;;;4916846;28;20110;-68
2023/06/10 12:09:36;;;;;;;2.08;1.38;;;32.10;60.70;;;;;;4941510;28;20522;-68
2023/06/10 12:12:07;;;;;;;3.40;1.40;;;32.20;61.10;;;;;;4943977;28;20419;-68
2023/06/10 12:15:02;;;;;;;1.70;1.30;;;31.60;60.00;;;;;;4954496;28;20432;-68
2023/06/10 12:17:31;;;;;;;3.13;1.80;;;31.10;59.90;;;;;;4920382;29;20067;-64
2023/06/10 12:19:58;;;;;;;2.53;1.50;;;30.90;61.30;;;;;;4942733;28;20403;-66
2023/06/10 12:22:25;;;;;;;3.13;1.40;;;30.70;61.90;;;;;;4961721;28;20031;-68
2023/06/10 12:25:06;;;;;;;5.65;1.40;;;30.90;62.20;;;;;;4957151;28;20035;-66
2023/06/10 12:27:36;;;;;;;3.58;1.55;;;30.60;62.80;;;;;;4948543;28;20127;-66
2023/06/10 12:30:05;;;;;;;3.13;2.08;;;30.40;63.50;;;;;;4940306;28;20042;-66
2023/06/10 12:32:58;;;;;;;2.33;1.50;;;31.00;63.20;;;;;;4930456;29;20086;-67
2023/06/10 12:35:27;;;;;;;3.30;1.65;;;31.10;61.90;;;;;;4937883;28;20133;-71
2023/06/10 12:38:03;;;;;;;3.13;1.90;;;31.20;62.20;;;;;;4943224;28;20126;-69
2023/06/10 12:49:56;;;;;;;2.70;1.65;;;32.60;60.20;;;;;;4988382;28;20848;-62
2023/06/10 12:52:22;;;;;;;3.80;1.77;;;32.90;59.30;;;;;;4972576;28;20035;-66
2023/06/10 12:54:47;;;;;;;1.85;1.20;;;33.10;59.30;;;;;;4971683;28;20034;-62
2023/06/10 12:57:13;;;;;;;2.88;1.63;;;33.50;58.30;;;;;;4972913;28;20044;-63
2023/06/10 12:59:40;;;;;;;2.58;1.63;;;33.40;58.10;;;;;;4988931;28;20097;-63
2023/06/10 13:02:06;;;;;;;3.78;1.58;;;33.50;57.80;;;;;;4969149;28;20106;-65